createdAt,value
2018-10-03T00:00:35.248Z,1011.66
2018-10-03T00:01:35.270Z,1011.65
2018-10-03T00:02:35.292Z,1011.64
2018-10-03T00:03:35.343Z,1011.69
2018-10-03T00:04:35.339Z,1011.70
2018-10-03T00:05:35.344Z,1011.68
2018-10-03T00:06:35.361Z,1011.68
2018-10-03T00:07:35.384Z,1011.77
2018-10-03T00:08:35.398Z,1011.65
2018-10-03T00:09:35.410Z,1011.70
2018-10-03T00:10:35.429Z,1011.71
2018-10-03T00:11:35.457Z,1011.61
2018-10-03T00:12:35.482Z,1011.59
2018-10-03T00:13:35.499Z,1011.57
2018-10-03T00:14:35.508Z,1011.52
2018-10-03T00:15:35.545Z,1011.57
2018-10-03T00:16:35.718Z,1011.66
2018-10-03T00:17:35.566Z,1011.61
2018-10-03T00:18:35.573Z,1011.59
2018-10-03T00:19:35.592Z,1011.69
2018-10-03T00:20:35.643Z,1011.64
2018-10-03T00:21:35.637Z,1011.61
2018-10-03T00:22:35.643Z,1011.60
2018-10-03T00:23:35.674Z,1011.67
2018-10-03T00:24:35.699Z,1011.68
2018-10-03T00:25:35.708Z,1011.70
2018-10-03T00:26:35.718Z,1011.63
2018-10-03T00:27:35.743Z,1011.58
2018-10-03T00:28:35.757Z,1011.65
2018-10-03T00:29:35.789Z,1011.60
2018-10-03T00:30:35.795Z,1011.60
2018-10-03T00:31:35.838Z,1011.61
2018-10-03T00:32:35.845Z,1011.63
2018-10-03T00:33:35.879Z,1011.65
2018-10-03T00:34:35.888Z,1011.56
2018-10-03T00:35:35.883Z,1011.57
2018-10-03T00:36:35.919Z,1011.53
2018-10-03T00:37:35.916Z,1011.55
2018-10-03T00:38:35.950Z,1011.52
2018-10-03T00:39:35.956Z,1011.55
2018-10-03T00:40:35.971Z,1011.53
2018-10-03T00:41:35.992Z,1011.50
2018-10-03T00:42:36.029Z,1011.57
2018-10-03T00:43:36.050Z,1011.60
2018-10-03T00:44:36.207Z,1011.60
2018-10-03T00:45:36.067Z,1011.61
2018-10-03T00:46:36.080Z,1011.63
2018-10-03T00:47:36.097Z,1011.61
2018-10-03T00:48:36.131Z,1011.58
2018-10-03T00:49:36.147Z,1011.58
2018-10-03T00:50:36.151Z,1011.57
2018-10-03T00:51:36.178Z,1011.51
2018-10-03T00:52:36.196Z,1011.50
2018-10-03T00:53:36.201Z,1011.47
2018-10-03T00:54:36.222Z,1011.48
2018-10-03T00:55:36.237Z,1011.45
2018-10-03T00:56:38.255Z,1011.44
2018-10-03T00:57:36.288Z,1011.47
2018-10-03T00:58:36.295Z,1011.48
2018-10-03T00:59:36.334Z,1011.49
2018-10-03T01:00:36.352Z,1011.50
2018-10-03T01:01:36.375Z,1011.53
2018-10-03T01:02:36.365Z,1011.52
2018-10-03T01:03:36.387Z,1011.51
2018-10-03T01:04:36.403Z,1011.48
2018-10-03T01:05:36.422Z,1011.44
2018-10-03T01:06:36.464Z,1011.39
2018-10-03T01:07:36.455Z,1011.44
2018-10-03T01:08:36.492Z,1011.39
2018-10-03T01:09:36.509Z,1011.38
2018-10-03T01:10:36.512Z,1011.39
2018-10-03T01:11:36.538Z,1011.46
2018-10-03T01:12:36.557Z,1011.46
2018-10-03T01:13:36.566Z,1011.43
2018-10-03T01:14:36.585Z,1011.40
2018-10-03T01:15:36.601Z,1011.41
2018-10-03T01:16:36.612Z,1011.44
2018-10-03T01:17:36.633Z,1011.42
2018-10-03T01:18:36.656Z,1011.43
2018-10-03T01:19:36.684Z,1011.41
2018-10-03T01:20:36.736Z,1011.41
2018-10-03T01:21:36.704Z,1011.45
2018-10-03T01:22:36.717Z,1011.54
2018-10-03T01:23:36.744Z,1011.56
2018-10-03T01:24:36.757Z,1011.50
2018-10-03T01:25:36.782Z,1011.55
2018-10-03T01:26:36.800Z,1011.57
2018-10-03T01:27:36.814Z,1011.54
2018-10-03T01:28:36.830Z,1011.53
2018-10-03T01:29:36.864Z,1011.54
2018-10-03T01:30:36.873Z,1011.55
2018-10-03T01:31:36.898Z,1011.57
2018-10-03T01:32:36.905Z,1011.56
2018-10-03T01:33:36.932Z,1011.51
2018-10-03T01:34:36.960Z,1011.58
2018-10-03T01:35:36.960Z,1011.53
2018-10-03T01:36:36.978Z,1011.57
2018-10-03T01:37:36.995Z,1011.55
2018-10-03T01:38:37.022Z,1011.57
2018-10-03T01:39:37.040Z,1011.57
2018-10-03T01:40:37.059Z,1011.50
2018-10-03T01:41:37.072Z,1011.51
2018-10-03T01:42:37.096Z,1011.52
2018-10-03T01:43:37.109Z,1011.57
2018-10-03T01:44:37.122Z,1011.56
2018-10-03T01:45:39.145Z,1011.53
2018-10-03T01:46:37.164Z,1011.56
2018-10-03T01:47:37.179Z,1011.58
2018-10-03T01:48:37.202Z,1011.50
2018-10-03T01:49:37.223Z,1011.51
2018-10-03T01:50:37.241Z,1011.48
2018-10-03T01:51:37.274Z,1011.45
2018-10-03T01:52:39.267Z,1011.46
2018-10-03T01:53:37.338Z,1011.48
2018-10-03T01:54:37.302Z,1011.41
2018-10-03T01:55:37.324Z,1011.55
2018-10-03T01:56:37.347Z,1011.53
2018-10-03T01:57:37.384Z,1011.56
2018-10-03T01:58:37.376Z,1011.54
2018-10-03T01:59:37.397Z,1011.56
2018-10-03T02:00:37.420Z,1011.58
2018-10-03T02:01:37.445Z,1011.60
2018-10-03T02:02:37.460Z,1011.60
2018-10-03T02:03:37.469Z,1011.59
2018-10-03T02:04:37.660Z,1011.70
2018-10-03T02:05:37.516Z,1011.70
2018-10-03T02:06:37.521Z,1011.63
2018-10-03T02:07:37.541Z,1011.68
2018-10-03T02:08:37.560Z,1011.72
2018-10-03T02:09:37.584Z,1011.65
2018-10-03T02:10:37.596Z,1011.62
2018-10-03T02:11:39.636Z,1011.61
2018-10-03T02:12:37.631Z,1011.55
2018-10-03T02:13:40.468Z,1011.59
2018-10-03T02:14:37.673Z,1011.66
2018-10-03T02:15:37.710Z,1011.68
2018-10-03T02:16:37.704Z,1011.66
2018-10-03T02:17:37.730Z,1011.67
2018-10-03T02:18:37.746Z,1011.70
2018-10-03T02:19:37.756Z,1011.66
2018-10-03T02:20:37.781Z,1011.68
2018-10-03T02:21:37.843Z,1011.73
2018-10-03T02:23:37.830Z,1011.61
2018-10-03T02:24:37.848Z,1011.52
2018-10-03T02:25:37.879Z,1011.58
2018-10-03T02:26:37.883Z,1011.54
2018-10-03T02:27:37.914Z,1011.55
2018-10-03T02:28:37.917Z,1011.65
2018-10-03T02:29:37.979Z,1011.64
2018-10-03T02:31:37.979Z,1011.68
2018-10-03T02:32:38.008Z,1011.79
2018-10-03T02:33:38.018Z,1011.80
2018-10-03T02:34:38.030Z,1011.83
2018-10-03T02:36:38.064Z,1011.77
2018-10-03T02:37:38.114Z,1011.79
2018-10-03T02:38:38.099Z,1011.77
2018-10-03T02:40:38.139Z,1011.77
2018-10-03T02:41:38.159Z,1011.77
2018-10-03T02:42:38.170Z,1011.77
2018-10-03T02:43:38.204Z,1011.78
2018-10-03T02:44:38.211Z,1011.80
2018-10-03T02:45:38.239Z,1011.74
2018-10-03T02:46:38.243Z,1011.66
2018-10-03T02:47:38.287Z,1011.69
2018-10-03T02:48:38.280Z,1011.63
2018-10-03T02:49:38.305Z,1011.64
2018-10-03T02:50:38.311Z,1011.62
2018-10-03T02:51:38.339Z,1011.68
2018-10-03T02:52:38.358Z,1011.63
2018-10-03T02:53:38.382Z,1011.58
2018-10-03T02:54:38.397Z,1011.62
2018-10-03T02:55:38.407Z,1011.68
2018-10-03T02:56:38.426Z,1011.74
2018-10-03T02:57:38.451Z,1011.66
2018-10-03T02:59:38.477Z,1011.68
2018-10-03T03:01:38.519Z,1011.71
2018-10-03T03:02:38.527Z,1011.71
2018-10-03T03:04:38.577Z,1011.71
2018-10-03T03:05:38.596Z,1011.75
2018-10-03T03:06:38.618Z,1011.73
2018-10-03T03:07:38.615Z,1011.88
2018-10-03T03:08:38.711Z,1011.75
2018-10-03T03:10:38.676Z,1011.83
2018-10-03T03:11:38.816Z,1011.87
2018-10-03T03:12:38.715Z,1011.83
2018-10-03T03:13:38.760Z,1011.84
2018-10-03T03:14:38.741Z,1011.82
2018-10-03T03:16:38.778Z,1011.86
2018-10-03T03:17:38.827Z,1011.81
2018-10-03T03:18:38.810Z,1011.85
2018-10-03T03:19:38.843Z,1011.75
2018-10-03T03:20:38.856Z,1011.72
2018-10-03T03:21:38.879Z,1011.72
2018-10-03T03:22:38.888Z,1011.67
2018-10-03T03:23:38.912Z,1011.70
2018-10-03T03:24:38.922Z,1011.65
2018-10-03T03:25:38.973Z,1011.67
2018-10-03T03:26:38.961Z,1011.72
2018-10-03T03:27:38.995Z,1011.72
2018-10-03T03:28:38.998Z,1011.72
2018-10-03T03:29:39.040Z,1011.70
2018-10-03T03:30:39.070Z,1011.70
2018-10-03T03:31:39.042Z,1011.64
2018-10-03T03:32:39.060Z,1011.69
2018-10-03T03:33:39.095Z,1011.60
2018-10-03T03:34:39.100Z,1011.62
2018-10-03T03:35:39.131Z,1011.59
2018-10-03T03:36:39.140Z,1011.59
2018-10-03T03:37:39.163Z,1011.61
2018-10-03T03:38:39.174Z,1011.62
2018-10-03T03:39:39.185Z,1011.60
2018-10-03T03:41:39.236Z,1011.61
2018-10-03T03:43:39.265Z,1011.66
2018-10-03T03:44:39.278Z,1011.70
2018-10-03T03:45:39.305Z,1011.71
2018-10-03T03:46:39.312Z,1011.76
2018-10-03T03:47:39.340Z,1011.78
2018-10-03T03:48:39.353Z,1011.72
2018-10-03T03:49:39.364Z,1011.76
2018-10-03T03:50:39.381Z,1011.77
2018-10-03T03:51:39.402Z,1011.70
2018-10-03T03:52:39.569Z,1011.69
2018-10-03T03:53:39.447Z,1011.68
2018-10-03T03:54:39.475Z,1011.68
2018-10-03T03:55:39.529Z,1011.61
2018-10-03T03:56:39.493Z,1011.64
2018-10-03T03:57:39.509Z,1011.63
2018-10-03T03:58:39.526Z,1011.62
2018-10-03T03:59:39.536Z,1011.59
2018-10-03T04:00:39.559Z,1011.64
2018-10-03T04:01:39.577Z,1011.61
2018-10-03T04:02:39.597Z,1011.64
2018-10-03T04:03:39.626Z,1011.60
2018-10-03T04:04:39.632Z,1011.61
2018-10-03T04:05:39.647Z,1011.62
2018-10-03T04:06:39.669Z,1011.72
2018-10-03T04:07:39.691Z,1011.67
2018-10-03T04:08:39.702Z,1011.68
2018-10-03T04:09:39.769Z,1011.68
2018-10-03T04:10:39.733Z,1011.65
2018-10-03T04:11:39.758Z,1011.69
2018-10-03T04:12:39.775Z,1011.69
2018-10-03T04:13:39.790Z,1011.77
2018-10-03T04:14:39.809Z,1011.76
2018-10-03T04:15:39.822Z,1011.82
2018-10-03T04:16:39.841Z,1011.79
2018-10-03T04:17:39.859Z,1011.81
2018-10-03T04:18:39.883Z,1011.80
2018-10-03T04:19:39.894Z,1011.78
2018-10-03T04:20:39.915Z,1011.79
2018-10-03T04:21:39.932Z,1011.79
2018-10-03T04:22:41.949Z,1011.75
2018-10-03T04:23:39.969Z,1011.75
2018-10-03T04:24:39.989Z,1011.82
2018-10-03T04:25:40.007Z,1011.84
2018-10-03T04:26:40.027Z,1011.78
2018-10-03T04:27:40.050Z,1011.85
2018-10-03T04:28:40.056Z,1011.81
2018-10-03T04:29:40.075Z,1011.76
2018-10-03T04:30:40.093Z,1011.79
2018-10-03T04:31:40.114Z,1011.81
2018-10-03T04:32:40.140Z,1011.84
2018-10-03T04:33:40.207Z,1011.80
2018-10-03T04:34:40.177Z,1011.83
2018-10-03T04:35:40.219Z,1011.74
2018-10-03T04:36:40.224Z,1011.72
2018-10-03T04:37:40.241Z,1011.78
2018-10-03T04:38:40.240Z,1011.83
2018-10-03T04:39:40.253Z,1011.88
2018-10-03T04:40:40.271Z,1011.87
2018-10-03T04:41:40.296Z,1011.81
2018-10-03T04:42:40.313Z,1011.88
2018-10-03T04:43:40.337Z,1011.82
2018-10-03T04:44:40.346Z,1011.78
2018-10-03T04:45:40.366Z,1011.82
2018-10-03T04:46:40.380Z,1011.86
2018-10-03T04:47:40.404Z,1011.87
2018-10-03T04:48:40.538Z,1011.83
2018-10-03T04:49:40.428Z,1011.89
2018-10-03T04:50:40.461Z,1011.83
2018-10-03T04:51:40.468Z,1011.84
2018-10-03T04:52:40.490Z,1011.81
2018-10-03T04:53:40.505Z,1011.86
2018-10-03T04:54:40.530Z,1011.83
2018-10-03T04:55:40.541Z,1011.86
2018-10-03T04:56:40.554Z,1011.94
2018-10-03T04:57:40.592Z,1011.89
2018-10-03T04:58:40.592Z,1011.83
2018-10-03T04:59:40.612Z,1011.89
2018-10-03T05:00:40.642Z,1011.80
2018-10-03T05:01:40.687Z,1011.81
2018-10-03T05:02:40.672Z,1011.84
2018-10-03T05:03:40.679Z,1011.84
2018-10-03T05:04:40.716Z,1011.89
2018-10-03T05:06:40.761Z,1011.89
2018-10-03T05:07:40.756Z,1011.88
2018-10-03T05:08:40.772Z,1011.86
2018-10-03T05:10:40.811Z,1011.85
2018-10-03T05:11:40.831Z,1011.92
2018-10-03T05:12:40.852Z,1011.90
2018-10-03T05:13:40.864Z,1011.86
2018-10-03T05:14:40.945Z,1011.90
2018-10-03T05:15:40.903Z,1011.92
2018-10-03T05:16:40.920Z,1011.99
2018-10-03T05:17:40.933Z,1011.93
2018-10-03T05:18:40.986Z,1011.90
2018-10-03T05:19:40.979Z,1011.99
2018-10-03T05:20:40.997Z,1012.04
2018-10-03T05:21:41.025Z,1012.04
2018-10-03T05:22:41.021Z,1012.10
2018-10-03T05:23:41.038Z,1012.03
2018-10-03T05:24:41.077Z,1012.06
2018-10-03T05:25:41.089Z,1012.11
2018-10-03T05:26:41.094Z,1012.06
2018-10-03T05:27:41.128Z,1012.11
2018-10-03T05:28:41.138Z,1012.12
2018-10-03T05:29:41.214Z,1012.15
2018-10-03T05:30:41.174Z,1012.18
2018-10-03T05:31:41.188Z,1012.17
2018-10-03T05:32:41.201Z,1012.16
2018-10-03T05:33:41.218Z,1012.19
2018-10-03T05:34:41.239Z,1012.24
2018-10-03T05:35:41.264Z,1012.25
2018-10-03T05:36:41.287Z,1012.17
2018-10-03T05:37:41.301Z,1012.21
2018-10-03T05:38:41.315Z,1012.26
2018-10-03T05:39:41.353Z,1012.29
2018-10-03T05:40:41.368Z,1012.27
2018-10-03T05:41:41.358Z,1012.20
2018-10-03T05:42:41.397Z,1012.18
2018-10-03T05:43:41.406Z,1012.20
2018-10-03T05:44:41.421Z,1012.19
2018-10-03T05:45:41.441Z,1012.17
2018-10-03T05:46:41.469Z,1012.26
2018-10-03T05:47:41.492Z,1012.33
2018-10-03T05:48:41.558Z,1012.29
2018-10-03T05:49:41.509Z,1012.36
2018-10-03T05:50:41.529Z,1012.33
2018-10-03T05:51:41.549Z,1012.33
2018-10-03T05:52:41.557Z,1012.30
2018-10-03T05:54:41.670Z,1012.40
2018-10-03T05:55:41.617Z,1012.43
2018-10-03T05:56:41.633Z,1012.43
2018-10-03T05:57:42.671Z,1012.50
2018-10-03T05:58:41.667Z,1012.51
2018-10-03T05:59:41.692Z,1012.57
2018-10-03T06:00:41.709Z,1012.55
2018-10-03T06:01:41.729Z,1012.62
2018-10-03T06:02:41.784Z,1012.62
2018-10-03T06:03:41.759Z,1012.65
2018-10-03T06:04:41.775Z,1012.66
2018-10-03T06:05:41.805Z,1012.71
2018-10-03T06:06:41.817Z,1012.72
2018-10-03T06:07:41.837Z,1012.74
2018-10-03T06:08:41.885Z,1012.81
2018-10-03T06:09:41.869Z,1012.77
2018-10-03T06:10:41.962Z,1012.81
2018-10-03T06:11:41.908Z,1012.78
2018-10-03T06:12:41.919Z,1012.82
2018-10-03T06:13:41.948Z,1012.79
2018-10-03T06:14:41.959Z,1012.76
2018-10-03T06:15:41.970Z,1012.80
2018-10-03T06:16:41.989Z,1012.82
2018-10-03T06:17:42.023Z,1012.90
2018-10-03T06:18:42.121Z,1012.93
2018-10-03T06:19:42.052Z,1012.87
2018-10-03T06:20:42.066Z,1012.94
2018-10-03T06:21:42.078Z,1012.93
2018-10-03T06:22:42.103Z,1012.92
2018-10-03T06:23:42.119Z,1012.95
2018-10-03T06:24:42.190Z,1012.92
2018-10-03T06:25:42.152Z,1012.92
2018-10-03T06:26:42.177Z,1012.91
2018-10-03T06:27:42.237Z,1012.99
2018-10-03T06:28:42.222Z,1012.96
2018-10-03T06:29:42.230Z,1013.03
2018-10-03T06:30:42.243Z,1013.00
2018-10-03T06:31:42.265Z,1013.04
2018-10-03T06:32:42.281Z,1013.02
2018-10-03T06:33:42.294Z,1013.05
2018-10-03T06:34:42.309Z,1013.04
2018-10-03T06:35:42.336Z,1013.04
2018-10-03T06:36:42.352Z,1013.04
2018-10-03T06:37:42.372Z,1013.10
2018-10-03T06:38:42.433Z,1013.09
2018-10-03T06:39:42.405Z,1013.12
2018-10-03T06:40:42.450Z,1013.15
2018-10-03T06:41:42.453Z,1013.13
2018-10-03T06:42:42.464Z,1013.15
2018-10-03T06:43:42.497Z,1013.16
2018-10-03T06:44:42.532Z,1013.24
2018-10-03T06:45:42.551Z,1013.20
2018-10-03T06:46:42.543Z,1013.30
2018-10-03T06:47:42.556Z,1013.30
2018-10-03T06:48:42.624Z,1013.33
2018-10-03T06:49:42.581Z,1013.34
2018-10-03T06:50:42.638Z,1013.34
2018-10-03T06:51:42.628Z,1013.34
2018-10-03T06:52:42.641Z,1013.35
2018-10-03T06:53:42.657Z,1013.38
2018-10-03T06:54:42.697Z,1013.37
2018-10-03T06:55:42.700Z,1013.39
2018-10-03T06:56:42.719Z,1013.37
2018-10-03T06:57:42.729Z,1013.45
2018-10-03T06:58:42.759Z,1013.49
2018-10-03T06:59:42.785Z,1013.50
2018-10-03T07:00:42.786Z,1013.56
2018-10-03T07:01:42.800Z,1013.57
2018-10-03T07:02:42.880Z,1013.55
2018-10-03T07:03:42.838Z,1013.57
2018-10-03T07:04:42.858Z,1013.59
2018-10-03T07:05:42.884Z,1013.53
2018-10-03T07:06:42.919Z,1013.57
2018-10-03T07:07:42.915Z,1013.59
2018-10-03T07:08:42.930Z,1013.52
2018-10-03T07:09:42.948Z,1013.56
2018-10-03T07:10:42.961Z,1013.54
2018-10-03T07:11:42.986Z,1013.53
2018-10-03T07:12:43.005Z,1013.61
2018-10-03T07:13:43.017Z,1013.57
2018-10-03T07:14:43.035Z,1013.62
2018-10-03T07:15:43.052Z,1013.69
2018-10-03T07:16:43.073Z,1013.62
2018-10-03T07:17:43.119Z,1013.65
2018-10-03T07:18:43.113Z,1013.64
2018-10-03T07:19:43.122Z,1013.65
2018-10-03T07:20:43.143Z,1013.63
2018-10-03T07:21:43.164Z,1013.65
2018-10-03T07:22:43.169Z,1013.58
2018-10-03T07:23:43.202Z,1013.66
2018-10-03T07:24:43.204Z,1013.63
2018-10-03T07:25:43.231Z,1013.69
2018-10-03T07:26:43.244Z,1013.72
2018-10-03T07:27:43.273Z,1013.71
2018-10-03T07:28:43.283Z,1013.71
2018-10-03T07:29:43.305Z,1013.72
2018-10-03T07:30:43.339Z,1013.71
2018-10-03T07:31:43.354Z,1013.78
2018-10-03T07:32:43.416Z,1013.73
2018-10-03T07:33:43.371Z,1013.77
2018-10-03T07:34:43.392Z,1013.79
2018-10-03T07:35:43.416Z,1013.82
2018-10-03T07:36:43.420Z,1013.92
2018-10-03T07:37:43.469Z,1013.90
2018-10-03T07:38:43.461Z,1013.91
2018-10-03T07:39:43.475Z,1013.90
2018-10-03T07:40:43.496Z,1013.92
2018-10-03T07:41:43.512Z,1013.91
2018-10-03T07:42:43.532Z,1013.88
2018-10-03T07:43:43.563Z,1013.87
2018-10-03T07:44:43.564Z,1013.84
2018-10-03T07:45:43.581Z,1013.89
2018-10-03T07:46:43.612Z,1013.91
2018-10-03T07:47:43.642Z,1013.94
2018-10-03T07:48:43.903Z,1013.97
2018-10-03T07:49:43.922Z,1014.00
2018-10-03T07:50:43.944Z,1013.97
2018-10-03T07:51:43.958Z,1013.92
2018-10-03T07:52:43.973Z,1013.93
2018-10-03T07:53:44.115Z,1013.92
2018-10-03T07:54:43.747Z,1013.88
2018-10-03T07:55:43.772Z,1013.87
2018-10-03T07:56:43.792Z,1013.82
2018-10-03T07:57:43.805Z,1013.74
2018-10-03T07:58:44.090Z,1013.77
2018-10-03T07:59:44.107Z,1013.82
2018-10-03T08:00:44.144Z,1013.77
2018-10-03T08:01:44.112Z,1013.83
2018-10-03T08:02:44.150Z,1013.88
2018-10-03T08:03:44.169Z,1013.82
2018-10-03T08:04:44.250Z,1013.85
2018-10-03T08:05:44.287Z,1013.90
2018-10-03T08:06:44.224Z,1013.88
2018-10-03T08:07:44.212Z,1013.92
2018-10-03T08:08:44.261Z,1013.91
2018-10-03T08:09:44.293Z,1013.92
2018-10-03T08:10:44.305Z,1013.96
2018-10-03T08:11:44.110Z,1013.95
2018-10-03T08:12:44.366Z,1013.98
2018-10-03T08:13:44.088Z,1014.04
2018-10-03T08:14:44.137Z,1014.06
2018-10-03T08:15:44.184Z,1014.03
2018-10-03T08:16:44.143Z,1014.04
2018-10-03T08:17:44.169Z,1014.05
2018-10-03T08:18:44.431Z,1014.00
2018-10-03T08:19:44.484Z,1013.97
2018-10-03T08:20:44.521Z,1014.00
2018-10-03T08:21:44.500Z,1013.97
2018-10-03T08:22:44.533Z,1013.98
2018-10-03T08:23:44.517Z,1013.96
2018-10-03T08:24:44.315Z,1013.93
2018-10-03T08:25:44.335Z,1013.98
2018-10-03T08:26:44.371Z,1014.01
2018-10-03T08:27:44.358Z,1014.02
2018-10-03T08:28:44.606Z,1014.12
2018-10-03T08:29:44.701Z,1014.06
2018-10-03T08:30:44.674Z,1014.08
2018-10-03T08:31:44.714Z,1014.18
2018-10-03T08:32:44.936Z,1014.18
2018-10-03T08:33:44.738Z,1014.12
2018-10-03T08:34:44.771Z,1014.12
2018-10-03T08:35:44.732Z,1014.06
2018-10-03T08:36:44.744Z,1014.14
2018-10-03T08:37:44.788Z,1014.12
2018-10-03T08:38:44.963Z,1014.15
2018-10-03T08:39:44.829Z,1014.16
2018-10-03T08:40:44.900Z,1014.13
2018-10-03T08:41:44.612Z,1014.04
2018-10-03T08:42:44.624Z,1014.11
2018-10-03T08:43:44.673Z,1014.11
2018-10-03T08:44:44.668Z,1014.12
2018-10-03T08:45:44.754Z,1014.13
2018-10-03T08:46:44.723Z,1014.06
2018-10-03T08:47:44.729Z,1014.05
2018-10-03T08:48:44.731Z,1014.12
2018-10-03T08:49:44.750Z,1014.14
2018-10-03T08:50:44.901Z,1014.09
2018-10-03T08:51:44.854Z,1014.12
2018-10-03T08:52:44.851Z,1014.06
2018-10-03T08:53:44.825Z,1014.03
2018-10-03T08:54:45.104Z,1014.09
2018-10-03T08:55:45.171Z,1014.11
2018-10-03T08:56:45.121Z,1014.07
2018-10-03T08:57:45.159Z,1014.02
2018-10-03T08:58:45.156Z,1014.02
2018-10-03T08:59:45.165Z,1014.01
2018-10-03T09:06:02.912Z,1014.17
2018-10-03T09:07:02.955Z,1014.18
2018-10-03T09:08:57.013Z,1014.27
2018-10-03T09:09:57.003Z,1014.16
2018-10-03T09:10:57.016Z,1014.22
2018-10-03T09:11:57.029Z,1014.23
2018-10-03T09:12:57.050Z,1014.19
2018-10-03T09:13:57.080Z,1014.19
2018-10-03T09:14:57.091Z,1014.19
2018-10-03T09:15:57.114Z,1014.27
2018-10-03T09:16:57.126Z,1014.24
2018-10-03T09:17:57.275Z,1014.31
2018-10-03T09:18:57.164Z,1014.28
2018-10-03T09:19:57.184Z,1014.28
2018-10-03T09:20:57.197Z,1014.26
2018-10-03T09:21:57.312Z,1014.32
2018-10-03T09:22:57.248Z,1014.30
2018-10-03T09:23:57.252Z,1014.27
2018-10-03T09:24:57.274Z,1014.28
2018-10-03T09:25:57.304Z,1014.33
2018-10-03T09:26:57.314Z,1014.33
2018-10-03T09:27:57.332Z,1014.31
2018-10-03T09:28:57.366Z,1014.30
2018-10-03T09:29:57.375Z,1014.32
2018-10-03T09:30:57.386Z,1014.38
2018-10-03T09:31:57.403Z,1014.43
2018-10-03T09:32:57.423Z,1014.40
2018-10-03T09:33:57.445Z,1014.47
2018-10-03T09:34:57.465Z,1014.43
2018-10-03T09:35:57.493Z,1014.38
2018-10-03T09:36:57.505Z,1014.37
2018-10-03T09:38:57.542Z,1014.36
2018-10-03T09:39:57.564Z,1014.33
2018-10-03T09:40:57.575Z,1014.34
2018-10-03T09:41:57.594Z,1014.38
2018-10-03T09:42:57.611Z,1014.35
2018-10-03T09:43:57.640Z,1014.29
2018-10-03T09:44:57.645Z,1014.33
2018-10-03T09:45:57.730Z,1014.22
2018-10-03T09:46:57.692Z,1014.37
2018-10-03T09:47:57.765Z,1014.34
2018-10-03T09:48:57.778Z,1014.34
2018-10-03T09:49:57.756Z,1014.33
2018-10-03T09:50:57.764Z,1014.34
2018-10-03T09:51:57.788Z,1014.47
2018-10-03T09:52:57.795Z,1014.40
2018-10-03T09:53:57.836Z,1014.44
2018-10-03T09:54:57.845Z,1014.40
2018-10-03T09:55:57.870Z,1014.35
2018-10-03T09:56:57.876Z,1014.39
2018-10-03T09:57:57.905Z,1014.39
2018-10-03T09:58:57.914Z,1014.40
2018-10-03T09:59:57.933Z,1014.37
2018-10-03T10:00:58.056Z,1014.34
2018-10-03T10:01:57.976Z,1014.35
2018-10-03T10:02:57.988Z,1014.33
2018-10-03T10:03:58.016Z,1014.35
2018-10-03T10:04:58.035Z,1014.36
2018-10-03T10:05:58.053Z,1014.38
2018-10-03T10:06:58.066Z,1014.36
2018-10-03T10:07:58.092Z,1014.37
2018-10-03T10:08:58.107Z,1014.39
2018-10-03T10:09:58.121Z,1014.40
2018-10-03T10:10:58.179Z,1014.34
2018-10-03T10:11:58.432Z,1014.27
2018-10-03T10:12:58.421Z,1014.31
2018-10-03T10:13:58.463Z,1014.27
2018-10-03T10:14:58.220Z,1014.29
2018-10-03T10:15:58.244Z,1014.38
2018-10-03T10:16:58.271Z,1014.43
2018-10-03T10:17:58.289Z,1014.40
2018-10-03T10:18:58.474Z,1014.40
2018-10-03T10:20:58.745Z,1014.43
2018-10-03T10:21:58.567Z,1014.46
2018-10-03T10:22:58.620Z,1014.44
2018-10-03T10:23:58.653Z,1014.46
2018-10-03T10:24:58.676Z,1014.48
2018-10-03T10:25:58.689Z,1014.48
2018-10-03T10:26:58.632Z,1014.53
2018-10-03T10:27:58.773Z,1014.46
2018-10-03T10:28:58.755Z,1014.50
2018-10-03T10:29:58.520Z,1014.46
2018-10-03T10:30:58.532Z,1014.48
2018-10-03T10:31:58.649Z,1014.50
2018-10-03T10:32:58.691Z,1014.49
2018-10-03T10:33:58.850Z,1014.47
2018-10-03T10:34:58.860Z,1014.50
2018-10-03T10:35:58.901Z,1014.58
2018-10-03T10:36:58.905Z,1014.50
2018-10-03T10:37:58.925Z,1014.52
2018-10-03T10:38:58.949Z,1014.50
2018-10-03T10:39:58.725Z,1014.50
2018-10-03T10:40:58.775Z,1014.57
2018-10-03T10:41:58.760Z,1014.55
2018-10-03T10:42:58.777Z,1014.58
2018-10-03T10:43:58.794Z,1014.64
2018-10-03T10:44:58.814Z,1014.65
2018-10-03T10:45:58.833Z,1014.70
2018-10-03T10:46:58.843Z,1014.70
2018-10-03T10:47:58.882Z,1014.70
2018-10-03T10:48:58.927Z,1014.71
2018-10-03T10:49:58.911Z,1014.75
2018-10-03T10:50:58.934Z,1014.75
2018-10-03T10:51:59.193Z,1014.75
2018-10-03T10:52:59.154Z,1014.69
2018-10-03T10:53:59.244Z,1014.74
2018-10-03T10:54:59.275Z,1014.70
2018-10-03T10:55:59.266Z,1014.74
2018-10-03T10:56:59.337Z,1014.75
2018-10-03T10:57:59.324Z,1014.80
2018-10-03T10:58:59.085Z,1014.76
2018-10-03T10:59:59.382Z,1014.71
2018-10-03T11:00:59.128Z,1014.72
2018-10-03T11:01:59.140Z,1014.72
2018-10-03T11:02:59.160Z,1014.75
2018-10-03T11:03:59.195Z,1014.76
2018-10-03T11:04:59.204Z,1014.77
2018-10-03T11:05:59.226Z,1014.75
2018-10-03T11:06:59.242Z,1014.77
2018-10-03T11:07:59.260Z,1014.76
2018-10-03T11:08:59.292Z,1014.75
2018-10-03T11:09:59.303Z,1014.70
2018-10-03T11:10:59.311Z,1014.74
2018-10-03T11:11:59.334Z,1014.68
2018-10-03T11:12:59.371Z,1014.69
2018-10-03T11:13:59.378Z,1014.69
2018-10-03T11:14:59.407Z,1014.67
2018-10-03T11:15:59.412Z,1014.65
2018-10-03T11:16:59.589Z,1014.63
2018-10-03T11:17:59.458Z,1014.62
2018-10-03T11:18:59.481Z,1014.61
2018-10-03T11:19:59.492Z,1014.63
2018-10-03T11:20:59.500Z,1014.61
2018-10-03T11:21:59.531Z,1014.62
2018-10-03T11:22:59.565Z,1014.63
2018-10-03T11:23:59.880Z,1014.61
2018-10-03T11:24:59.684Z,1014.66
2018-10-03T11:25:59.608Z,1014.66
2018-10-03T11:26:59.622Z,1014.61
2018-10-03T11:27:59.643Z,1014.62
2018-10-03T11:28:59.672Z,1014.64
2018-10-03T11:29:59.811Z,1014.67
2018-10-03T11:30:59.698Z,1014.61
2018-10-03T11:31:59.727Z,1014.53
2018-10-03T11:32:59.745Z,1014.58
2018-10-03T11:33:59.767Z,1014.58
2018-10-03T11:34:59.781Z,1014.57
2018-10-03T11:35:59.805Z,1014.57
2018-10-03T11:36:59.818Z,1014.59
2018-10-03T11:37:59.855Z,1014.56
2018-10-03T11:38:59.873Z,1014.55
2018-10-03T11:39:59.876Z,1014.56
2018-10-03T11:40:59.899Z,1014.54
2018-10-03T11:41:59.924Z,1014.56
2018-10-03T11:42:59.951Z,1014.55
2018-10-03T11:43:59.985Z,1014.54
2018-10-03T11:44:59.996Z,1014.56
2018-10-03T11:46:00.009Z,1014.59
2018-10-03T11:48:00.041Z,1014.55
2018-10-03T11:49:00.060Z,1014.61
2018-10-03T11:50:00.085Z,1014.60
2018-10-03T11:51:00.089Z,1014.63
2018-10-03T11:52:00.109Z,1014.58
2018-10-03T11:53:00.129Z,1014.60
2018-10-03T11:54:00.150Z,1014.60
2018-10-03T11:55:00.161Z,1014.64
2018-10-03T11:56:00.194Z,1014.58
2018-10-03T11:57:00.216Z,1014.60
2018-10-03T11:58:00.270Z,1014.59
2018-10-03T11:59:00.247Z,1014.57
2018-10-03T12:00:00.267Z,1014.55
2018-10-03T12:01:00.280Z,1014.57
2018-10-03T12:02:00.317Z,1014.55
2018-10-03T12:03:00.569Z,1014.53
2018-10-03T12:04:00.362Z,1014.52
2018-10-03T12:05:00.361Z,1014.50
2018-10-03T12:06:00.387Z,1014.47
2018-10-03T12:07:00.402Z,1014.47
2018-10-03T12:08:00.434Z,1014.46
2018-10-03T12:09:00.512Z,1014.45
2018-10-03T12:10:00.457Z,1014.51
2018-10-03T12:11:00.477Z,1014.49
2018-10-03T12:12:00.503Z,1014.47
2018-10-03T12:13:00.516Z,1014.47
2018-10-03T12:14:00.548Z,1014.49
2018-10-03T12:15:00.549Z,1014.49
2018-10-03T12:16:00.565Z,1014.53
2018-10-03T12:17:00.596Z,1014.48
2018-10-03T12:18:00.702Z,1014.46
2018-10-03T12:19:00.639Z,1014.46
2018-10-03T12:20:00.645Z,1014.43
2018-10-03T12:21:00.677Z,1014.45
2018-10-03T12:22:00.692Z,1014.44
2018-10-03T12:23:00.711Z,1014.44
2018-10-03T12:24:00.729Z,1014.47
2018-10-03T12:25:00.750Z,1014.47
2018-10-03T12:26:00.770Z,1014.48
2018-10-03T12:27:00.790Z,1014.45
2018-10-03T12:28:00.812Z,1014.53
2018-10-03T12:29:00.827Z,1014.52